Airfield :
LOGIN :

Register | Disclaimer

   EN    FR    IT 

 










Legend :    VFR   Marginal VFR   IFR   Intensive IFR   Very Intensive IFR
Visi :
Ceiling :
>= 8 km
>= 3000ft
5 to 8 km
1000 to 3000 ft
1500m to 5 km
500 to 1000 ft
800 to 1500m
200 to 500 ft
< 800m
< 200 ft
Symbols :   Thunderstorms  Fog  Heavy snow  Heavy precipitations  Wind > 20 kt
SIGMETs :     Misc.  Thunderstorms  Icing  Turbulence  Mountain Waves  Volcanic Ashes







- Airport Elevation : 18 ft


LIPC - Cervia AFB Ravenna

CURRENT METAR :
  • 190755Z 29003KT 9999 FEW050 25/19 Q1019

EXPIRED METARs :
  • 190655Z 30006KT CAVOK 24/18 Q1019 RMK BKN BKN090 VIS MIN 9999 WIND THR11 28006KT WIND THR29 /////KT BLU
  • 190555Z 27002KT CAVOK 21/19 Q1019 RMK BKN FEW080 SCT100 VIS MIN 9999 WIND THR11 27003KT WIND THR29 /////KT BLU

TAF TAF LIPC
Valid from the 19 at 06:00 until the 19 at 15:00 UTC


190500Z 1906/1915 35006KT CAVOK
No reported NOTAMs for that airfield.



MET'MAP, your aeronautical weather chart ! - Copyright ORBIFLY December 2007 - Disclaimer

ORBIFLY MET'MAP TEAM :

Programming & Development : Alexandra Zaïnal
Concept & Development : Baudouin d'Aumeries
Co-Development & Prog : Marc-Olivier Méhu
Technical & hardware support : Manuel Goepfert

Contact : metmap@orbifly.com




SOURCES & CREDITS :

   NOAA